Time;durP1;ratioP1;P1;durP2;ratioP2;P2;SDS_P1;SDS_P2;PMS_P1;PMS_P2;Temp;Humidity;BMP_temperature;BMP_pressure;BME280_temperature;BME280_humidity;BME280_pressure;Samples;Min_cycle;Max_cycle;Signal;HPM_P1;HPM_P2
2023/06/10 00:05:07;;;;;;;6.60;5.27;;;18.90;99.90;;;;;;5052903;28;20535;-75
2023/06/10 00:07:37;;;;;;;8.80;5.60;;;18.80;99.90;;;;;;5070286;28;20452;-78
2023/06/10 00:10:05;;;;;;;7.17;5.80;;;18.90;99.90;;;;;;5076489;28;20462;-80
2023/06/10 00:13:13;;;;;;;6.43;4.77;;;18.90;99.90;;;;;;5071202;28;20610;-80
2023/06/10 00:15:40;;;;;;;7.90;6.20;;;18.90;99.90;;;;;;5027946;28;20945;-76
2023/06/10 00:18:09;;;;;;;7.47;5.10;;;18.90;99.90;;;;;;5061085;28;20500;-76
2023/06/10 00:20:37;;;;;;;9.00;5.37;;;18.80;99.90;;;;;;5070808;28;20469;-76
2023/06/10 00:23:06;;;;;;;11.00;5.40;;;18.90;99.90;;;;;;5071590;28;20458;-77
2023/06/10 00:25:33;;;;;;;10.90;6.70;;;18.80;99.90;;;;;;5074780;28;20494;-76
2023/06/10 00:28:02;;;;;;;7.40;5.40;;;18.90;99.90;;;;;;5063439;28;20489;-77
2023/06/10 00:30:28;;;;;;;11.20;7.77;;;18.80;99.90;;;;;;5055373;28;20527;-77
2023/06/10 00:32:56;;;;;;;9.30;5.77;;;18.80;99.90;;;;;;5054762;28;20511;-77
2023/06/10 00:35:23;;;;;;;13.63;9.43;;;18.70;99.90;;;;;;5053686;28;20489;-77
2023/06/10 00:37:50;;;;;;;9.60;7.50;;;18.70;99.90;;;;;;5056923;28;20474;-77
2023/06/10 00:40:17;;;;;;;10.93;6.80;;;18.80;99.90;;;;;;5061568;28;20481;-77
2023/06/10 00:42:45;;;;;;;11.90;6.60;;;18.80;99.90;;;;;;5061507;28;20497;-77
2023/06/10 00:45:16;;;;;;;11.50;6.03;;;18.70;99.90;;;;;;5073252;28;20466;-76
2023/06/10 00:47:43;;;;;;;7.33;6.47;;;18.70;99.90;;;;;;5054157;28;20581;-77
2023/06/10 00:50:12;;;;;;;11.40;6.60;;;18.80;99.90;;;;;;5058334;28;20501;-75
2023/06/10 00:52:39;;;;;;;8.97;7.47;;;18.80;99.90;;;;;;5061356;28;20471;-79
2023/06/10 00:55:07;;;;;;;7.73;6.33;;;18.80;99.90;;;;;;5072797;28;20867;-80
2023/06/10 00:57:37;;;;;;;11.30;6.47;;;18.70;99.90;;;;;;5072979;28;20462;-79
2023/06/10 01:00:07;;;;;;;7.57;5.60;;;18.70;99.90;;;;;;5071903;28;20458;-76
2023/06/10 01:02:36;;;;;;;6.93;5.87;;;18.60;99.90;;;;;;5071503;28;20475;-79
2023/06/10 01:05:07;;;;;;;8.83;5.60;;;18.60;99.90;;;;;;5071601;28;20480;-76
2023/06/10 01:07:39;;;;;;;10.87;5.20;;;18.50;99.90;;;;;;5068085;28;20502;-74
2023/06/10 01:10:11;;;;;;;7.80;5.50;;;18.40;99.90;;;;;;5071176;28;20486;-74
2023/06/10 01:12:48;;;;;;;7.20;5.57;;;18.40;99.90;;;;;;5073529;28;20477;-75
2023/06/10 01:15:16;;;;;;;12.43;6.73;;;18.40;99.90;;;;;;5071448;28;20454;-75
2023/06/10 01:18:01;;;;;;;8.70;6.00;;;18.30;99.90;;;;;;5073965;28;20454;-74
2023/06/10 01:20:30;;;;;;;7.30;6.60;;;18.30;99.90;;;;;;5072702;28;20764;-78
2023/06/10 01:23:01;;;;;;;14.63;7.60;;;18.30;99.90;;;;;;5069202;28;20458;-78
2023/06/10 01:25:32;;;;;;;6.73;5.20;;;18.30;99.90;;;;;;5071681;28;20512;-79
2023/06/10 01:28:06;;;;;;;10.47;5.77;;;18.20;99.90;;;;;;5072851;28;20702;-79
2023/06/10 01:30:43;;;;;;;11.13;5.60;;;18.20;99.90;;;;;;5073180;28;20918;-79
2023/06/10 01:33:12;;;;;;;6.67;5.03;;;18.10;99.90;;;;;;5073751;28;20450;-76
2023/06/10 01:35:40;;;;;;;7.13;5.30;;;18.10;99.90;;;;;;5073502;28;20490;-76
2023/06/10 01:38:11;;;;;;;10.70;5.20;;;18.10;99.90;;;;;;5070686;28;20456;-79
2023/06/10 01:40:39;;;;;;;10.40;5.80;;;18.10;99.90;;;;;;5071050;28;20457;-79
2023/06/10 01:43:07;;;;;;;8.37;5.60;;;18.00;99.90;;;;;;5073030;28;20525;-76
2023/06/10 01:45:34;;;;;;;9.03;6.37;;;18.00;99.90;;;;;;5071425;28;20489;-79
2023/06/10 01:48:01;;;;;;;9.37;5.57;;;18.00;99.90;;;;;;5071129;28;20516;-79
2023/06/10 01:50:28;;;;;;;12.27;8.00;;;18.00;99.90;;;;;;5058750;28;20963;-79
2023/06/10 01:52:55;;;;;;;12.53;10.47;;;17.90;99.90;;;;;;5070484;28;20462;-76
2023/06/10 01:55:23;;;;;;;9.50;7.00;;;17.90;99.90;;;;;;5069849;28;20486;-75
2023/06/10 01:57:51;;;;;;;9.03;6.27;;;17.90;99.90;;;;;;5052196;28;20528;-76
2023/06/10 02:00:18;;;;;;;11.93;5.73;;;17.90;99.90;;;;;;5052526;28;20529;-77
2023/06/10 02:02:45;;;;;;;8.50;5.53;;;17.80;99.90;;;;;;5059562;28;20455;-78
2023/06/10 02:05:12;;;;;;;9.43;6.30;;;17.80;99.90;;;;;;5071216;28;20466;-76
2023/06/10 02:07:39;;;;;;;10.27;7.00;;;17.80;99.90;;;;;;5060931;28;20468;-74
2023/06/10 02:10:08;;;;;;;12.10;6.30;;;17.80;99.90;;;;;;5059812;28;20468;-77
2023/06/10 02:12:36;;;;;;;8.00;5.90;;;17.80;99.90;;;;;;5056278;28;20499;-77
2023/06/10 02:15:03;;;;;;;13.47;6.90;;;17.80;99.90;;;;;;5052857;28;20961;-77
2023/06/10 02:17:34;;;;;;;6.40;5.33;;;17.80;99.90;;;;;;5068705;28;21002;-76
2023/06/10 02:20:04;;;;;;;9.27;6.30;;;17.80;99.90;;;;;;5052861;28;20474;-76
2023/06/10 02:22:30;;;;;;;6.23;4.70;;;17.80;99.90;;;;;;5050721;28;20806;-77
2023/06/10 02:24:58;;;;;;;9.13;5.07;;;17.80;99.90;;;;;;5071443;28;20477;-76
2023/06/10 02:27:25;;;;;;;8.17;6.23;;;17.80;99.90;;;;;;5071266;28;20498;-75
2023/06/10 02:29:54;;;;;;;6.90;5.17;;;17.80;99.90;;;;;;5072128;28;20458;-75
2023/06/10 02:32:20;;;;;;;9.37;5.40;;;17.80;99.90;;;;;;5072394;28;20471;-76
2023/06/10 02:34:48;;;;;;;9.87;6.57;;;17.80;99.90;;;;;;5071938;28;20454;-75
2023/06/10 02:37:16;;;;;;;9.93;5.60;;;17.70;99.90;;;;;;5054835;28;20487;-75
2023/06/10 02:39:43;;;;;;;6.37;5.47;;;17.70;99.90;;;;;;5064362;28;20494;-76
2023/06/10 02:42:11;;;;;;;8.87;5.70;;;17.70;99.90;;;;;;5065679;28;20466;-76
2023/06/10 02:44:38;;;;;;;7.30;5.03;;;17.70;99.90;;;;;;5065863;28;20481;-76
2023/06/10 02:47:10;;;;;;;7.47;5.07;;;17.70;99.90;;;;;;5052599;28;20505;-76
2023/06/10 02:49:37;;;;;;;11.20;6.87;;;17.70;99.90;;;;;;5053763;28;20467;-75
2023/06/10 02:52:04;;;;;;;11.37;5.60;;;17.70;99.90;;;;;;5057652;28;20490;-75
2023/06/10 02:54:31;;;;;;;7.10;6.13;;;17.60;99.90;;;;;;5060986;28;20472;-77
2023/06/10 02:56:58;;;;;;;16.67;12.40;;;17.70;99.90;;;;;;5069748;28;20477;-75
2023/06/10 02:59:26;;;;;;;6.70;6.00;;;17.60;99.90;;;;;;5065505;28;20547;-76
2023/06/10 03:01:54;;;;;;;13.00;6.47;;;17.60;99.90;;;;;;5070252;28;20764;-75
2023/06/10 03:04:23;;;;;;;10.50;5.93;;;17.60;99.90;;;;;;5071872;28;20819;-75
2023/06/10 03:06:51;;;;;;;6.33;5.60;;;17.60;99.90;;;;;;5061231;28;20765;-76
2023/06/10 03:09:18;;;;;;;6.77;5.00;;;17.60;99.90;;;;;;5052506;28;20860;-75
2023/06/10 03:11:45;;;;;;;5.03;4.40;;;17.60;99.90;;;;;;5065777;28;20569;-74
2023/06/10 03:14:14;;;;;;;10.00;5.87;;;17.60;99.90;;;;;;5092368;28;20488;-75
2023/06/10 03:16:42;;;;;;;9.00;5.93;;;17.70;99.90;;;;;;5095904;28;20504;-77
2023/06/10 03:19:09;;;;;;;10.00;5.53;;;17.70;99.90;;;;;;5096561;28;20473;-76
2023/06/10 03:21:38;;;;;;;7.23;5.10;;;17.70;99.90;;;;;;5095937;28;20469;-76
2023/06/10 03:24:06;;;;;;;7.43;6.03;;;17.70;99.90;;;;;;5079533;28;20801;-77
2023/06/10 03:26:34;;;;;;;9.30;6.80;;;17.70;99.90;;;;;;5075649;28;20964;-76
2023/06/10 03:29:00;;;;;;;7.67;5.20;;;17.70;99.90;;;;;;5076246;28;20455;-77
2023/06/10 03:31:29;;;;;;;14.50;6.80;;;17.70;99.90;;;;;;5075931;28;20524;-76
2023/06/10 03:33:58;;;;;;;7.37;4.77;;;17.70;99.90;;;;;;5075087;28;20454;-77
2023/06/10 03:36:28;;;;;;;9.20;5.80;;;17.70;99.90;;;;;;5075204;28;20466;-77
2023/06/10 03:38:56;;;;;;;9.37;5.80;;;17.70;99.90;;;;;;5075621;28;20458;-76
2023/06/10 03:41:25;;;;;;;7.27;5.40;;;17.70;99.90;;;;;;5075602;28;20466;-76
2023/06/10 03:43:52;;;;;;;10.13;6.23;;;17.70;99.90;;;;;;5075546;28;20470;-76
2023/06/10 03:46:19;;;;;;;8.53;5.40;;;17.70;99.90;;;;;;5075368;28;20478;-75
2023/06/10 03:48:49;;;;;;;7.27;5.33;;;17.70;99.90;;;;;;5054873;28;21035;-77
2023/06/10 03:51:16;;;;;;;14.10;6.90;;;17.70;99.90;;;;;;5055732;28;20463;-77
2023/06/10 03:53:43;;;;;;;7.53;6.07;;;17.70;99.90;;;;;;5055282;28;20536;-74
2023/06/10 03:56:17;;;;;;;9.00;5.90;;;17.70;99.90;;;;;;5055254;28;20829;-75
2023/06/10 03:58:45;;;;;;;9.50;5.07;;;17.70;99.90;;;;;;5055285;28;20498;-76
2023/06/10 04:01:13;;;;;;;7.37;5.17;;;17.80;99.90;;;;;;5055363;28;20467;-76
2023/06/10 04:03:41;;;;;;;7.93;6.00;;;17.80;99.90;;;;;;5054970;28;20546;-76
2023/06/10 04:06:09;;;;;;;11.20;6.40;;;17.90;99.90;;;;;;5055601;28;20551;-77
2023/06/10 04:08:40;;;;;;;7.50;6.40;;;17.90;99.90;;;;;;5036929;28;20472;-75
2023/06/10 04:11:07;;;;;;;7.60;6.80;;;17.90;99.90;;;;;;5028365;28;20552;-76
2023/06/10 04:13:36;;;;;;;8.90;5.57;;;17.90;99.90;;;;;;5048078;28;20468;-75
2023/06/10 04:16:03;;;;;;;8.43;6.90;;;17.90;99.90;;;;;;5034862;28;20472;-76
2023/06/10 04:18:30;;;;;;;8.23;6.30;;;18.00;99.90;;;;;;5035542;28;20456;-76
2023/06/10 04:20:57;;;;;;;6.17;5.33;;;18.00;99.90;;;;;;5034880;28;20475;-77
2023/06/10 04:23:24;;;;;;;7.53;6.73;;;18.00;99.90;;;;;;5044120;28;20887;-77
2023/06/10 04:25:51;;;;;;;8.07;5.93;;;18.00;99.90;;;;;;5053854;28;20854;-77
2023/06/10 04:28:18;;;;;;;10.50;6.47;;;18.00;99.90;;;;;;5055039;28;20983;-76
2023/06/10 04:30:47;;;;;;;8.40;6.17;;;18.00;99.90;;;;;;5054832;28;20467;-76
2023/06/10 04:33:14;;;;;;;8.03;6.10;;;18.00;99.90;;;;;;5054445;28;20529;-77
2023/06/10 04:35:41;;;;;;;6.53;5.93;;;18.00;99.90;;;;;;5055050;28;20561;-76
2023/06/10 04:38:09;;;;;;;7.47;6.70;;;18.00;99.90;;;;;;5054314;28;20471;-76
2023/06/10 04:40:36;;;;;;;12.93;6.13;;;18.00;99.90;;;;;;5054708;28;20475;-77
2023/06/10 04:43:03;;;;;;;10.07;6.47;;;18.00;99.90;;;;;;5054684;28;20474;-76
2023/06/10 04:45:31;;;;;;;9.27;6.30;;;18.00;99.90;;;;;;5054553;28;20962;-75
2023/06/10 04:47:59;;;;;;;8.13;6.57;;;18.00;99.90;;;;;;5067458;28;20466;-75
2023/06/10 04:50:26;;;;;;;11.73;7.63;;;18.10;99.90;;;;;;5063325;28;20466;-76
2023/06/10 04:52:53;;;;;;;7.00;6.17;;;18.10;99.90;;;;;;5074191;28;21034;-76
2023/06/10 04:55:21;;;;;;;7.67;6.30;;;18.10;99.90;;;;;;5074074;28;20562;-76
2023/06/10 04:57:48;;;;;;;7.67;5.43;;;18.20;99.90;;;;;;5074869;28;20517;-77
2023/06/10 05:00:16;;;;;;;11.57;6.97;;;18.20;99.90;;;;;;5073735;28;20972;-75
2023/06/10 05:02:44;;;;;;;10.50;6.43;;;18.20;99.90;;;;;;5074038;28;20549;-76
2023/06/10 05:05:13;;;;;;;8.40;6.07;;;18.20;99.90;;;;;;5073882;28;20481;-74
2023/06/10 05:07:40;;;;;;;9.63;6.30;;;18.30;99.90;;;;;;5074178;28;20471;-77
2023/06/10 05:10:08;;;;;;;7.50;6.80;;;18.30;99.90;;;;;;5073573;28;20466;-75
2023/06/10 05:12:35;;;;;;;10.37;7.40;;;18.30;99.90;;;;;;5073647;28;20535;-75
2023/06/10 05:15:06;;;;;;;9.03;6.03;;;18.40;99.90;;;;;;5073503;28;20478;-76
2023/06/10 05:17:34;;;;;;;8.53;5.90;;;18.40;99.90;;;;;;5074237;28;20768;-75
2023/06/10 05:20:04;;;;;;;7.83;6.47;;;18.40;99.90;;;;;;5073350;28;21032;-76
2023/06/10 05:22:39;;;;;;;8.73;6.43;;;18.40;99.90;;;;;;5060662;28;20485;-76
2023/06/10 05:25:07;;;;;;;9.70;6.50;;;18.50;99.90;;;;;;5040179;28;20549;-75
2023/06/10 05:27:34;;;;;;;8.00;6.30;;;18.50;99.90;;;;;;5053405;28;20759;-76
2023/06/10 05:30:02;;;;;;;7.40;6.70;;;18.60;99.90;;;;;;5053912;28;20467;-76
2023/06/10 05:32:30;;;;;;;8.83;6.43;;;18.60;99.90;;;;;;5053003;28;20455;-76
2023/06/10 05:34:57;;;;;;;5.90;5.30;;;18.70;99.90;;;;;;5053650;28;20961;-77
2023/06/10 05:37:25;;;;;;;11.27;6.90;;;18.70;99.90;;;;;;5052146;28;20791;-76
2023/06/10 05:39:54;;;;;;;10.10;7.60;;;18.80;99.90;;;;;;5053379;28;20495;-76
2023/06/10 05:42:20;;;;;;;7.43;6.70;;;18.90;99.90;;;;;;5052972;28;20821;-76
2023/06/10 05:44:48;;;;;;;8.97;6.30;;;19.00;99.90;;;;;;5053551;28;20530;-76
2023/06/10 05:47:15;;;;;;;8.80;6.97;;;19.20;99.90;;;;;;5052378;28;20941;-75
2023/06/10 05:49:48;;;;;;;8.33;7.63;;;19.20;99.90;;;;;;5053641;28;20474;-76
2023/06/10 05:52:15;;;;;;;9.40;7.03;;;19.40;99.90;;;;;;5052760;28;20471;-76
2023/06/10 05:54:42;;;;;;;11.40;7.57;;;19.60;99.90;;;;;;5053094;28;20940;-76
2023/06/10 05:57:13;;;;;;;8.90;7.07;;;19.60;99.90;;;;;;5052623;28;20668;-75
2023/06/10 05:59:40;;;;;;;9.70;6.20;;;19.70;99.90;;;;;;5052979;28;20471;-77
2023/06/10 06:02:07;;;;;;;6.40;5.80;;;19.90;99.90;;;;;;5053385;28;20467;-75
2023/06/10 06:04:35;;;;;;;8.27;6.70;;;20.10;99.90;;;;;;5053052;28;20462;-76
2023/06/10 06:07:02;;;;;;;8.70;6.37;;;20.20;99.90;;;;;;5057972;28;20795;-76
2023/06/10 06:09:29;;;;;;;9.77;7.03;;;20.30;99.90;;;;;;5072169;28;20981;-75
2023/06/10 06:11:56;;;;;;;9.17;6.67;;;20.40;99.90;;;;;;5073170;28;20475;-76
2023/06/10 06:14:24;;;;;;;7.70;6.27;;;20.60;99.90;;;;;;5072040;28;20474;-76
2023/06/10 06:16:52;;;;;;;8.83;7.07;;;20.60;99.90;;;;;;5072697;28;20481;-76
2023/06/10 06:19:19;;;;;;;7.37;6.77;;;20.70;99.90;;;;;;5072034;28;20914;-77
2023/06/10 06:21:47;;;;;;;8.43;6.50;;;20.70;99.90;;;;;;5072422;28;20454;-77
2023/06/10 06:24:16;;;;;;;9.00;6.80;;;20.80;99.90;;;;;;5072311;28;20471;-76
2023/06/10 06:26:47;;;;;;;10.23;6.67;;;20.80;99.90;;;;;;5072991;28;20470;-75
2023/06/10 06:29:14;;;;;;;8.00;7.03;;;20.90;99.90;;;;;;5071477;28;20531;-76
2023/06/10 06:31:43;;;;;;;11.83;5.40;;;21.00;99.90;;;;;;5072571;28;20488;-75
2023/06/10 06:34:11;;;;;;;7.60;6.90;;;21.00;99.90;;;;;;5072988;28;20474;-77
2023/06/10 06:36:38;;;;;;;7.57;6.70;;;21.00;99.90;;;;;;5072177;28;20481;-76
2023/06/10 06:39:09;;;;;;;9.60;6.83;;;21.00;99.90;;;;;;5072527;28;20473;-76
2023/06/10 06:41:37;;;;;;;10.10;7.83;;;21.00;99.90;;;;;;5061688;28;20778;-76
2023/06/10 06:44:04;;;;;;;7.50;6.57;;;21.00;99.90;;;;;;5072817;28;20515;-74
2023/06/10 06:46:40;;;;;;;8.40;6.63;;;21.10;99.90;;;;;;5071055;28;20470;-76
2023/06/10 06:49:11;;;;;;;9.87;6.70;;;21.10;99.90;;;;;;5073451;28;20561;-75
2023/06/10 06:51:38;;;;;;;10.70;7.20;;;21.10;99.90;;;;;;5075468;28;20565;-76
2023/06/10 06:54:06;;;;;;;10.57;7.03;;;21.10;99.90;;;;;;5075897;28;20732;-76
2023/06/10 06:56:34;;;;;;;8.37;6.40;;;21.20;99.90;;;;;;5075562;28;20470;-77
2023/06/10 06:59:01;;;;;;;9.07;7.40;;;21.20;99.90;;;;;;5076642;28;20465;-76
2023/06/10 07:01:31;;;;;;;8.73;6.57;;;21.30;99.90;;;;;;5076025;28;20535;-76
2023/06/10 07:03:58;;;;;;;10.90;8.70;;;21.30;99.90;;;;;;5076839;28;20864;-75
2023/06/10 07:06:26;;;;;;;6.77;6.13;;;21.40;99.90;;;;;;5075557;28;20485;-76
2023/06/10 07:08:54;;;;;;;7.77;7.13;;;21.50;99.90;;;;;;5075944;28;20470;-76
2023/06/10 07:11:21;;;;;;;7.63;6.23;;;21.60;99.90;;;;;;5075740;28;20478;-77
2023/06/10 07:13:49;;;;;;;8.17;7.37;;;21.60;99.90;;;;;;5076156;28;20454;-77
2023/06/10 07:16:16;;;;;;;12.00;7.07;;;21.70;99.90;;;;;;5075950;28;20474;-76
2023/06/10 07:18:43;;;;;;;7.67;7.00;;;21.80;99.90;;;;;;5075324;28;20450;-77
2023/06/10 07:21:14;;;;;;;9.50;6.93;;;21.90;99.90;;;;;;5075832;28;20466;-77
2023/06/10 07:23:44;;;;;;;7.70;7.00;;;22.00;99.90;;;;;;5075234;28;20482;-76
2023/06/10 07:26:13;;;;;;;9.30;6.90;;;22.10;99.90;;;;;;5076012;28;20470;-76
2023/06/10 07:28:40;;;;;;;10.37;6.90;;;22.20;99.90;;;;;;5064681;28;20478;-76
2023/06/10 07:31:08;;;;;;;9.37;6.90;;;22.30;99.90;;;;;;5075351;28;20956;-76
2023/06/10 07:33:36;;;;;;;10.50;6.30;;;22.50;99.90;;;;;;5074726;28;20473;-77
2023/06/10 07:36:04;;;;;;;9.27;7.53;;;22.60;99.90;;;;;;5075580;28;20787;-76
2023/06/10 07:38:31;;;;;;;12.67;7.60;;;22.80;99.90;;;;;;5075042;28;20554;-75
2023/06/10 07:40:59;;;;;;;11.27;7.17;;;22.90;99.90;;;;;;5075632;28;20466;-76
2023/06/10 07:43:34;;;;;;;7.30;6.60;;;23.10;99.90;;;;;;5074979;28;20478;-74
2023/06/10 07:46:05;;;;;;;7.67;6.87;;;23.30;99.90;;;;;;5074828;28;20519;-75
2023/06/10 07:48:32;;;;;;;7.63;6.83;;;23.50;99.90;;;;;;5075496;28;20512;-76
2023/06/10 07:50:59;;;;;;;8.40;7.70;;;23.60;99.90;;;;;;5074875;28;20463;-78
2023/06/10 07:53:29;;;;;;;9.13;8.20;;;23.80;99.90;;;;;;5075580;28;20474;-77
2023/06/10 07:55:56;;;;;;;10.53;8.17;;;23.90;99.90;;;;;;5063137;28;20493;-75
2023/06/10 07:58:33;;;;;;;10.33;7.30;;;24.00;99.90;;;;;;5074994;28;20521;-77
2023/06/10 08:01:00;;;;;;;9.20;7.30;;;24.00;99.90;;;;;;5073637;28;20473;-77
2023/06/10 08:03:27;;;;;;;8.13;7.33;;;23.90;99.90;;;;;;5075291;28;20469;-76
2023/06/10 08:05:56;;;;;;;7.83;6.97;;;23.90;99.90;;;;;;5074467;28;20537;-75
2023/06/10 08:08:23;;;;;;;8.40;7.60;;;24.00;99.90;;;;;;5074984;28;20470;-77
2023/06/10 08:10:50;;;;;;;8.73;7.73;;;24.00;99.90;;;;;;5074180;28;20474;-74
2023/06/10 08:13:17;;;;;;;8.10;7.23;;;24.10;99.90;;;;;;5074599;28;20904;-78
2023/06/10 08:15:47;;;;;;;8.10;7.37;;;24.20;99.90;;;;;;5074300;28;20581;-77
2023/06/10 08:18:15;;;;;;;12.50;8.10;;;24.40;99.80;;;;;;5074935;28;20462;-77
2023/06/10 08:20:45;;;;;;;8.33;7.60;;;24.50;99.40;;;;;;5074769;28;20480;-76
2023/06/10 08:23:12;;;;;;;9.10;6.93;;;24.70;99.30;;;;;;5073827;28;20905;-78
2023/06/10 08:25:40;;;;;;;8.47;7.53;;;24.70;99.10;;;;;;5074733;28;20975;-77
2023/06/10 08:28:07;;;;;;;9.57;8.20;;;24.80;98.80;;;;;;5065415;28;20466;-77
2023/06/10 08:30:40;;;;;;;8.47;7.53;;;24.80;98.60;;;;;;5074859;28;20490;-78
2023/06/10 08:33:09;;;;;;;9.97;7.40;;;24.90;98.60;;;;;;5074376;28;20462;-77
2023/06/10 08:35:40;;;;;;;8.30;7.60;;;25.00;98.30;;;;;;5074718;28;20474;-78
2023/06/10 08:38:07;;;;;;;8.13;7.43;;;25.00;98.10;;;;;;5074137;28;20504;-76
2023/06/10 08:40:34;;;;;;;8.13;7.33;;;25.10;98.10;;;;;;5074687;28;20807;-76
2023/06/10 08:43:07;;;;;;;7.50;6.77;;;25.20;97.90;;;;;;5074262;28;20470;-77
2023/06/10 08:45:36;;;;;;;8.30;7.50;;;25.30;97.70;;;;;;5074796;28;20546;-77
2023/06/10 08:48:06;;;;;;;7.60;6.90;;;25.40;97.60;;;;;;5073418;28;20512;-76
2023/06/10 08:50:39;;;;;;;7.33;6.73;;;25.40;97.50;;;;;;5074601;28;20786;-78
2023/06/10 08:53:09;;;;;;;13.10;6.97;;;25.40;97.10;;;;;;5073942;28;20474;-77
2023/06/10 08:55:40;;;;;;;9.20;8.30;;;25.40;97.00;;;;;;5074569;28;20466;-77
2023/06/10 08:58:09;;;;;;;7.33;6.40;;;25.30;96.90;;;;;;5073721;28;20471;-77
2023/06/10 09:00:37;;;;;;;8.67;7.47;;;25.30;96.80;;;;;;5074083;28;20470;-78
2023/06/10 09:03:08;;;;;;;7.97;7.20;;;25.20;96.70;;;;;;5064018;28;20532;-76
2023/06/10 09:05:37;;;;;;;7.63;6.93;;;25.10;96.70;;;;;;5073794;28;20481;-76
2023/06/10 09:08:07;;;;;;;8.33;7.53;;;25.00;96.90;;;;;;5073257;28;20463;-77
2023/06/10 09:10:35;;;;;;;12.90;7.40;;;24.90;97.00;;;;;;5073457;28;20450;-79
2023/06/10 09:13:02;;;;;;;8.60;7.70;;;24.80;97.00;;;;;;5073634;28;20482;-75
2023/06/10 09:15:30;;;;;;;7.60;6.90;;;24.60;97.20;;;;;;5074031;28;20474;-78
2023/06/10 09:17:57;;;;;;;9.63;8.60;;;24.60;97.40;;;;;;5074042;28;20474;-75
2023/06/10 09:20:24;;;;;;;9.50;8.53;;;24.40;97.60;;;;;;5073378;28;20462;-78
2023/06/10 09:22:53;;;;;;;8.03;7.00;;;24.40;97.70;;;;;;5074097;28;20477;-76
2023/06/10 09:25:20;;;;;;;8.20;7.20;;;24.30;97.80;;;;;;5073093;28;20470;-77
2023/06/10 09:27:53;;;;;;;9.40;7.90;;;24.30;98.00;;;;;;5072423;28;20486;-77
2023/06/10 09:30:28;;;;;;;9.30;8.03;;;24.20;98.50;;;;;;5072543;28;20470;-77
2023/06/10 09:32:56;;;;;;;9.47;7.13;;;24.20;98.90;;;;;;5073719;28;20478;-76
2023/06/10 09:35:23;;;;;;;9.00;7.90;;;24.10;99.50;;;;;;5072323;28;21268;-76
2023/06/10 09:37:53;;;;;;;10.53;7.93;;;24.00;99.90;;;;;;5072704;28;20466;-75
2023/06/10 09:40:21;;;;;;;11.90;8.00;;;23.90;99.90;;;;;;5072533;28;20462;-75
2023/06/10 09:42:54;;;;;;;10.90;7.13;;;23.90;99.90;;;;;;5073466;28;20544;-77
2023/06/10 09:45:22;;;;;;;9.67;7.03;;;23.80;99.90;;;;;;5071997;28;20482;-78
2023/06/10 09:47:53;;;;;;;10.60;8.03;;;23.80;99.90;;;;;;5055715;28;20512;-76
2023/06/10 09:50:20;;;;;;;11.83;7.30;;;23.70;99.90;;;;;;5072374;28;20963;-77
2023/06/10 09:52:49;;;;;;;8.77;7.63;;;23.60;99.90;;;;;;5063191;28;20466;-76
2023/06/10 09:55:18;;;;;;;7.93;6.90;;;23.50;99.90;;;;;;5073016;28;20471;-77
2023/06/10 09:57:50;;;;;;;10.03;8.37;;;23.40;99.90;;;;;;5072721;28;20812;-75
2023/06/10 10:00:17;;;;;;;12.53;8.83;;;23.40;99.90;;;;;;5072190;28;20543;-77
2023/06/10 10:02:49;;;;;;;8.53;7.70;;;23.30;99.90;;;;;;5072387;28;20814;-76
2023/06/10 10:05:21;;;;;;;11.53;7.40;;;23.30;99.90;;;;;;5071632;28;20527;-76
2023/06/10 10:07:48;;;;;;;12.77;8.73;;;23.20;99.90;;;;;;5060651;28;20589;-76
2023/06/10 10:10:18;;;;;;;8.80;7.90;;;23.20;99.90;;;;;;5052426;28;20470;-76
2023/06/10 10:12:48;;;;;;;9.43;8.50;;;23.20;99.90;;;;;;5052883;28;20475;-76
2023/06/10 10:15:18;;;;;;;8.93;8.13;;;23.20;99.90;;;;;;5051431;28;20486;-76
2023/06/10 10:17:50;;;;;;;9.53;8.00;;;23.10;99.90;;;;;;5052680;28;20491;-76
2023/06/10 10:20:23;;;;;;;8.73;7.80;;;23.20;99.90;;;;;;5050215;28;20467;-76
2023/06/10 10:22:53;;;;;;;12.07;7.60;;;23.20;99.90;;;;;;5054983;28;20474;-77
2023/06/10 10:25:25;;;;;;;8.57;7.70;;;23.30;99.90;;;;;;5069497;28;20506;-78
2023/06/10 10:27:56;;;;;;;8.00;7.20;;;23.30;99.90;;;;;;5072502;28;20469;-77
2023/06/10 10:30:24;;;;;;;12.30;8.60;;;23.40;99.90;;;;;;5072216;28;20461;-77
2023/06/10 10:32:58;;;;;;;10.17;7.83;;;23.40;99.90;;;;;;5073202;28;20477;-75
2023/06/10 10:35:26;;;;;;;13.33;8.07;;;23.40;99.90;;;;;;5071921;28;20970;-77
2023/06/10 10:37:54;;;;;;;7.43;6.67;;;23.40;99.90;;;;;;5072174;28;20484;-78
2023/06/10 10:40:26;;;;;;;7.70;7.10;;;23.40;99.90;;;;;;5072511;28;20463;-77
2023/06/10 10:42:55;;;;;;;7.17;6.50;;;23.50;99.90;;;;;;5073779;28;20470;-76
2023/06/10 10:45:23;;;;;;;6.50;5.87;;;23.50;99.40;;;;;;5073107;28;26156;-77
2023/06/10 10:47:55;;;;;;;7.37;6.57;;;23.50;98.90;;;;;;5072681;28;20481;-76
2023/06/10 10:50:24;;;;;;;6.73;6.13;;;23.50;99.30;;;;;;5071696;28;20553;-77
2023/06/10 10:52:56;;;;;;;6.07;5.60;;;23.50;99.90;;;;;;5071730;28;20473;-75
2023/06/10 10:55:27;;;;;;;7.00;6.33;;;23.50;99.90;;;;;;5071640;28;20469;-76
2023/06/10 10:57:59;;;;;;;5.80;5.13;;;23.50;99.90;;;;;;5072925;28;20477;-76
2023/06/10 11:00:29;;;;;;;6.90;6.20;;;23.50;99.90;;;;;;5071848;28;20466;-78
2023/06/10 11:02:59;;;;;;;6.10;5.60;;;23.50;99.90;;;;;;5072760;28;20963;-76
2023/06/10 11:05:39;;;;;;;6.20;5.80;;;23.50;99.90;;;;;;5071576;28;20730;-78
2023/06/10 11:08:07;;;;;;;6.70;6.20;;;23.60;99.90;;;;;;5071155;28;20474;-76
2023/06/10 11:10:37;;;;;;;7.40;6.80;;;23.60;99.90;;;;;;5072643;28;20839;-77
2023/06/10 11:13:13;;;;;;;7.03;6.53;;;23.70;99.90;;;;;;5072008;28;20956;-76
2023/06/10 11:15:46;;;;;;;6.80;6.20;;;23.70;99.90;;;;;;5072765;28;20598;-75
2023/06/10 11:18:23;;;;;;;7.10;6.60;;;23.70;99.90;;;;;;5071904;28;20498;-75
2023/06/10 11:20:55;;;;;;;6.70;6.10;;;23.80;99.90;;;;;;5070904;28;20466;-77
2023/06/10 11:23:34;;;;;;;6.53;6.03;;;23.80;99.90;;;;;;5072259;28;20490;-76
2023/06/10 11:26:16;;;;;;;7.20;6.33;;;23.80;99.90;;;;;;5071985;28;20535;-76
2023/06/10 11:29:02;;;;;;;7.40;6.70;;;23.90;99.90;;;;;;5072185;28;20508;-75
2023/06/10 11:31:33;;;;;;;6.33;5.73;;;23.90;99.90;;;;;;5073199;28;20518;-77
2023/06/10 11:34:02;;;;;;;6.63;6.03;;;23.90;99.90;;;;;;5072258;28;20493;-77
2023/06/10 11:36:30;;;;;;;5.87;5.47;;;23.90;99.90;;;;;;5072481;28;20569;-75
2023/06/10 11:38:59;;;;;;;6.80;5.90;;;23.90;99.30;;;;;;5074993;28;20519;-76
2023/06/10 11:41:29;;;;;;;5.80;5.40;;;23.90;99.30;;;;;;5075978;28;20473;-78
2023/06/10 11:43:56;;;;;;;7.77;7.03;;;23.90;99.60;;;;;;5074565;28;20545;-75
2023/06/10 11:46:26;;;;;;;7.53;6.90;;;24.00;99.90;;;;;;5075250;28;20497;-77
2023/06/10 11:48:54;;;;;;;7.30;6.60;;;24.00;99.90;;;;;;5074800;28;20470;-77
2023/06/10 11:51:23;;;;;;;7.07;6.37;;;24.00;99.90;;;;;;5075060;28;20480;-77
2023/06/10 11:53:51;;;;;;;15.83;7.83;;;24.10;99.90;;;;;;5074414;28;20469;-77
2023/06/10 11:56:21;;;;;;;9.63;7.90;;;24.20;99.90;;;;;;5074775;28;20471;-76
2023/06/10 11:58:55;;;;;;;11.37;7.83;;;24.10;99.90;;;;;;5074768;28;20473;-77
2023/06/10 12:01:23;;;;;;;10.30;8.20;;;24.20;99.90;;;;;;5075470;28;20470;-77
2023/06/10 12:03:59;;;;;;;7.10;6.53;;;24.20;99.90;;;;;;5066985;28;20987;-77
2023/06/10 12:06:26;;;;;;;13.43;8.20;;;24.30;99.90;;;;;;5054492;28;20467;-77
2023/06/10 12:08:53;;;;;;;9.30;8.50;;;24.40;99.90;;;;;;5072494;28;20474;-76
2023/06/10 12:11:21;;;;;;;7.60;6.87;;;24.50;99.90;;;;;;5075127;28;20462;-77
2023/06/10 12:13:50;;;;;;;8.60;7.90;;;24.60;99.90;;;;;;5066071;28;20781;-76
2023/06/10 12:16:19;;;;;;;8.70;8.00;;;24.60;99.90;;;;;;5074555;28;20485;-77
2023/06/10 12:18:48;;;;;;;8.10;7.50;;;24.70;99.90;;;;;;5074690;28;20478;-75
2023/06/10 12:21:21;;;;;;;9.03;8.33;;;24.80;99.90;;;;;;5074949;28;20855;-77
2023/06/10 12:24:12;;;;;;;9.07;8.27;;;24.80;99.90;;;;;;5062537;28;20577;-78
2023/06/10 12:26:42;;;;;;;6.97;6.30;;;24.90;99.90;;;;;;5075000;28;20466;-77
2023/06/10 12:29:23;;;;;;;7.50;6.87;;;24.90;99.90;;;;;;5074377;28;20533;-77
2023/06/10 12:32:04;;;;;;;7.03;6.53;;;25.00;99.60;;;;;;5070019;28;20474;-77
2023/06/10 12:34:37;;;;;;;7.07;6.47;;;25.20;98.30;;;;;;5090662;28;20527;-77
2023/06/10 12:37:05;;;;;;;6.77;6.27;;;25.30;97.10;;;;;;5074996;28;20543;-78
2023/06/10 12:39:33;;;;;;;6.30;5.80;;;25.40;95.70;;;;;;5078510;28;20831;-77
2023/06/10 12:42:01;;;;;;;7.13;6.63;;;25.50;95.20;;;;;;5094436;28;20475;-78
2023/06/10 12:44:34;;;;;;;8.70;7.83;;;25.60;94.70;;;;;;5095142;28;20472;-77
2023/06/10 12:47:01;;;;;;;8.00;7.30;;;25.70;94.50;;;;;;5080937;28;20474;-78
2023/06/10 12:49:28;;;;;;;8.03;7.40;;;25.80;94.30;;;;;;5057352;28;20478;-77
2023/06/10 12:52:00;;;;;;;7.23;6.73;;;25.90;94.40;;;;;;5063172;28;20466;-77
2023/06/10 12:54:28;;;;;;;8.40;7.70;;;26.00;94.20;;;;;;5072767;28;20561;-78
2023/06/10 12:57:00;;;;;;;8.70;7.90;;;26.10;94.40;;;;;;5073019;28;20474;-78